This is the latest recevied weather packets stored in our database for station/object IZ5TJI-3. If no packets are shown the sender has not sent any weather packets the latest 10 day(s).
| Time | Temp. | Humidity | Pressure | Rain* | Wind** | Luminosity | Snow |
|---|---|---|---|---|---|---|---|
| 1777681823 | 8.33° C | 56% | 1024.5 hPa | 0 mm | - | - | - |
| 1777680923 | 8.33° C | 53% | 1024.5 hPa | 0 mm | - | - | - |
| 1777680023 | 8.89° C | 52% | 1024.5 hPa | 0 mm | - | - | - |
| 1777679123 | 8.33° C | 53% | 1024.5 hPa | 0 mm | - | - | - |
| 1777678224 | 8.33° C | 52% | 1024.5 hPa | 0 mm | - | - | - |
| 1777677323 | 8.33° C | 52% | 1024.4 hPa | 0 mm | - | - | - |
| 1777676423 | 8.89° C | 50% | 1024.4 hPa | 0 mm | - | - | - |
| 1777675524 | 9.44° C | 48% | 1024.4 hPa | 0 mm | - | - | - |
| 1777674624 | 8.89° C | 49% | 1024.3 hPa | 0 mm | - | - | - |
| 1777673724 | 9.44° C | 48% | 1024 hPa | 0 mm | - | - | - |
| 1777672824 | 10° C | 46% | 1023.9 hPa | 0 mm | - | - | - |
| 1777671924 | 10.56° C | 44% | 1024 hPa | 0 mm | - | - | - |
| 1777671024 | 11.11° C | 42% | 1024 hPa | 0 mm | - | - | - |
| 1777670124 | 11.11° C | 42% | 1024 hPa | 0 mm | - | - | - |
| 1777669224 | 12.22° C | 38% | 1024 hPa | 0 mm | - | - | - |
| 1777668324 | 12.78° C | 36% | 1023.8 hPa | 0 mm | - | - | - |
| 1777667424 | 13.33° C | 35% | 1023.7 hPa | 0 mm | - | - | - |
| 1777666524 | 13.89° C | 31% | 1023.6 hPa | 0 mm | - | - | - |
| 1777665624 | 14.44° C | 31% | 1023.7 hPa | 0 mm | - | - | - |
| 1777664724 | 14.44° C | 31% | 1023.5 hPa | 0 mm | - | - | - |
| 1777663824 | 15° C | 30% | 1023.5 hPa | 0 mm | - | - | - |
| 1777662924 | 15° C | 30% | 1023.2 hPa | 0 mm | - | - | - |
| 1777662028 | 15° C | 30% | 1023.1 hPa | 0 mm | - | - | - |
| 1777661124 | 15.56° C | 29% | 1023 hPa | 0 mm | - | - | - |
| 1777660224 | 16.11° C | 28% | 1022.8 hPa | 0 mm | - | - | - |
* Rain latest hour (hover to see other rain measurements)
** Current wind speed in m/s (hover to see current wind gust speed)